West Salem, Wisconsin
Current Conditions -  °F | °C
As of 7:53 PM on Tuesday 21 Oct 2014 (Local Time) from KLSE Reporting Station
Clear Clear  
Wind Chill:   Ceiling: Unl
Heat Index:   Visibility: 10mi
Dew Point:   Wind: 7mph
Humidity: 64%   Direction: 100°E
Pressure: 30.22"   Gusts: NA
Location:  43.9°N, 91.08°W
Report Text: KLSE 220053Z 10006KT 10SM CLR 09/03 A3022 RMK AO2 SLP239 T00940028
Loading
Personal Weather Stations






























Interactive Weather Map
Tropical Storm Tracking
New forecast layout! Learn more

10-Day Weather Forecast

Advertisements
Track Severe Weather on mobile